createdAt,value
2022-09-24T00:00:39.723Z,8.70
2022-09-24T00:01:39.881Z,9.10
2022-09-24T00:02:39.732Z,8.90
2022-09-24T00:03:39.673Z,8.80
2022-09-24T00:04:39.684Z,8.70
2022-09-24T00:05:39.630Z,8.50
2022-09-24T00:06:39.643Z,9.00
2022-09-24T00:07:39.619Z,9.80
2022-09-24T00:08:39.608Z,9.30
2022-09-24T00:09:39.642Z,9.10
2022-09-24T00:10:39.576Z,9.40
2022-09-24T00:11:39.558Z,9.30
2022-09-24T00:12:39.557Z,9.30
2022-09-24T00:13:39.536Z,9.10
2022-09-24T00:14:39.531Z,8.70
2022-09-24T00:15:39.519Z,8.60
2022-09-24T00:16:39.606Z,9.20
2022-09-24T00:17:39.532Z,9.90
2022-09-24T00:18:39.466Z,9.80
2022-09-24T00:19:39.468Z,10.00
2022-09-24T00:20:39.465Z,10.10
2022-09-24T00:21:39.448Z,10.20
2022-09-24T00:22:39.417Z,9.60
2022-09-24T00:23:39.426Z,9.20
2022-09-24T00:24:39.414Z,9.60
2022-09-24T00:25:39.382Z,9.60
2022-09-24T00:26:39.442Z,9.90
2022-09-24T00:27:39.361Z,9.70
2022-09-24T00:28:39.382Z,10.40
2022-09-24T00:29:39.353Z,10.20
2022-09-24T00:30:39.384Z,10.50
2022-09-24T00:31:39.545Z,10.20
2022-09-24T00:32:39.295Z,9.90
2022-09-24T00:33:39.393Z,10.40
2022-09-24T00:34:39.268Z,10.20
2022-09-24T00:35:39.290Z,9.80
2022-09-24T00:36:39.275Z,10.80
2022-09-24T00:37:39.230Z,10.50
2022-09-24T00:38:39.255Z,10.80
2022-09-24T00:39:39.230Z,11.10
2022-09-24T00:40:39.244Z,10.40
2022-09-24T00:41:39.226Z,10.90
2022-09-24T00:42:39.158Z,11.00
2022-09-24T00:43:39.173Z,10.70
2022-09-24T00:44:39.149Z,11.10
2022-09-24T00:45:39.118Z,10.60
2022-09-24T00:46:39.180Z,11.10
2022-09-24T00:47:39.111Z,11.10
2022-09-24T00:48:39.102Z,11.70
2022-09-24T00:49:39.067Z,10.50
2022-09-24T00:50:39.065Z,10.70
2022-09-24T00:51:39.045Z,10.90
2022-09-24T00:52:39.025Z,11.30
2022-09-24T00:53:39.029Z,11.00
2022-09-24T00:54:38.993Z,11.10
2022-09-24T00:55:39.003Z,10.20
2022-09-24T00:56:38.982Z,10.40
2022-09-24T00:57:38.992Z,10.60
2022-09-24T00:58:38.962Z,10.30
2022-09-24T00:59:38.997Z,9.80
2022-09-24T01:00:38.998Z,10.00
2022-09-24T01:01:38.979Z,10.10
2022-09-24T01:02:38.923Z,9.90
2022-09-24T01:03:38.902Z,10.10
2022-09-24T01:04:38.882Z,9.10
2022-09-24T01:05:38.880Z,9.50
2022-09-24T01:06:38.840Z,9.80
2022-09-24T01:07:38.853Z,9.50
2022-09-24T01:08:38.820Z,10.00
2022-09-24T01:09:38.820Z,9.90
2022-09-24T01:10:38.798Z,9.60
2022-09-24T01:11:38.791Z,9.70
2022-09-24T01:12:38.773Z,9.50
2022-09-24T01:13:42.887Z,9.80
2022-09-24T01:14:38.769Z,10.20
2022-09-24T01:15:38.730Z,9.60
2022-09-24T01:16:38.754Z,9.30
2022-09-24T01:17:38.707Z,9.20
2022-09-24T01:18:38.702Z,10.20
2022-09-24T01:19:38.692Z,10.00
2022-09-24T01:20:38.674Z,10.70
2022-09-24T01:21:38.711Z,9.80
2022-09-24T01:22:38.676Z,10.10
2022-09-24T01:23:38.648Z,9.90
2022-09-24T01:24:38.617Z,9.90
2022-09-24T01:25:38.606Z,9.80
2022-09-24T01:26:38.606Z,9.40
2022-09-24T01:27:38.588Z,9.70
2022-09-24T01:28:38.558Z,10.30
2022-09-24T01:29:38.580Z,9.50
2022-09-24T01:30:38.536Z,9.90
2022-09-24T01:31:39.251Z,9.90
2022-09-24T01:32:38.506Z,9.80
2022-09-24T01:33:38.497Z,10.70
2022-09-24T01:34:38.504Z,9.90
2022-09-24T01:35:38.495Z,9.70
2022-09-24T01:36:38.474Z,10.00
2022-09-24T01:37:38.459Z,10.10
2022-09-24T01:38:38.414Z,9.70
2022-09-24T01:39:38.406Z,9.60
2022-09-24T01:40:38.482Z,10.00
2022-09-24T01:41:38.402Z,9.10
2022-09-24T01:42:38.403Z,9.60
2022-09-24T01:43:38.373Z,9.90
2022-09-24T01:44:38.408Z,9.60
2022-09-24T01:45:38.332Z,9.20
2022-09-24T01:46:38.397Z,10.00
2022-09-24T01:47:38.331Z,9.30
2022-09-24T01:48:38.341Z,9.00
2022-09-24T01:49:38.313Z,9.60
2022-09-24T01:50:38.261Z,11.10
2022-09-24T01:51:38.253Z,9.60
2022-09-24T01:52:38.243Z,9.90
2022-09-24T01:53:38.261Z,10.50
2022-09-24T01:54:38.249Z,10.40
2022-09-24T01:55:38.209Z,10.60
2022-09-24T01:56:38.222Z,10.60
2022-09-24T01:57:38.199Z,10.50
2022-09-24T01:58:38.177Z,10.60
2022-09-24T01:59:38.181Z,10.60
2022-09-24T02:00:38.211Z,10.00
2022-09-24T02:01:38.190Z,10.30
2022-09-24T02:02:38.127Z,9.90
2022-09-24T02:03:38.127Z,9.40
2022-09-24T02:04:38.123Z,9.50
2022-09-24T02:05:38.106Z,9.50
2022-09-24T02:06:38.056Z,9.60
2022-09-24T02:07:38.058Z,9.50
2022-09-24T02:08:38.059Z,9.40
2022-09-24T02:09:38.026Z,9.80
2022-09-24T02:10:38.017Z,8.90
2022-09-24T02:11:38.027Z,9.60
2022-09-24T02:12:38.012Z,9.60
2022-09-24T02:13:37.980Z,9.50
2022-09-24T02:14:37.975Z,9.60
2022-09-24T02:15:37.964Z,10.10
2022-09-24T02:16:37.943Z,9.90
2022-09-24T02:17:37.935Z,9.80
2022-09-24T02:18:37.977Z,10.00
2022-09-24T02:19:37.894Z,10.50
2022-09-24T02:20:37.956Z,9.70
2022-09-24T02:21:37.873Z,10.20
2022-09-24T02:22:37.898Z,10.20
2022-09-24T02:23:37.852Z,10.10
2022-09-24T02:24:37.862Z,10.40
2022-09-24T02:25:37.808Z,10.70
2022-09-24T02:26:37.811Z,10.50
2022-09-24T02:27:37.813Z,9.80
2022-09-24T02:28:37.789Z,10.10
2022-09-24T02:29:37.782Z,10.50
2022-09-24T02:30:37.740Z,10.30
2022-09-24T02:31:37.814Z,11.90
2022-09-24T02:32:37.734Z,10.60
2022-09-24T02:33:37.716Z,10.60
2022-09-24T02:34:37.716Z,10.40
2022-09-24T02:35:37.705Z,9.80
2022-09-24T02:36:37.689Z,10.00
2022-09-24T02:37:37.670Z,10.20
2022-09-24T02:38:37.645Z,10.70
2022-09-24T02:39:37.663Z,10.00
2022-09-24T02:40:37.687Z,10.40
2022-09-24T02:41:37.599Z,10.50
2022-09-24T02:42:37.604Z,10.70
2022-09-24T02:43:37.597Z,10.90
2022-09-24T02:44:37.593Z,10.60
2022-09-24T02:45:37.562Z,10.50
2022-09-24T02:46:37.638Z,9.80
2022-09-24T02:47:37.575Z,10.30
2022-09-24T02:48:37.511Z,10.20
2022-09-24T02:49:37.524Z,10.40
2022-09-24T02:50:37.494Z,10.30
2022-09-24T02:51:38.421Z,10.80
2022-09-24T02:52:37.533Z,10.80
2022-09-24T02:53:37.443Z,10.90
2022-09-24T02:54:37.461Z,10.60
2022-09-24T02:55:37.485Z,10.90
2022-09-24T02:56:37.430Z,10.60
2022-09-24T02:57:37.432Z,10.50
2022-09-24T02:58:37.389Z,11.60
2022-09-24T02:59:37.382Z,11.50
2022-09-24T03:00:37.362Z,11.50
2022-09-24T03:01:37.443Z,10.60
2022-09-24T03:02:37.561Z,11.40
2022-09-24T03:03:37.326Z,11.00
2022-09-24T03:04:37.320Z,10.50
2022-09-24T03:05:37.365Z,10.20
2022-09-24T03:06:37.281Z,10.20
2022-09-24T03:07:37.314Z,10.20
2022-09-24T03:08:37.250Z,10.90
2022-09-24T03:09:37.280Z,10.30
2022-09-24T03:10:37.240Z,10.00
2022-09-24T03:11:37.226Z,10.10
2022-09-24T03:12:37.199Z,10.40
2022-09-24T03:13:37.211Z,10.90
2022-09-24T03:14:37.178Z,10.50
2022-09-24T03:15:37.316Z,10.10
2022-09-24T03:16:37.147Z,10.30
2022-09-24T03:17:37.156Z,10.70
2022-09-24T03:18:37.108Z,10.90
2022-09-24T03:19:37.126Z,10.80
2022-09-24T03:20:37.108Z,10.70
2022-09-24T03:21:37.115Z,11.00
2022-09-24T03:22:37.073Z,11.20
2022-09-24T03:23:37.065Z,10.20
2022-09-24T03:24:37.058Z,10.80
2022-09-24T03:25:37.053Z,10.30
2022-09-24T03:26:37.011Z,10.60
2022-09-24T03:27:37.022Z,10.50
2022-09-24T03:28:36.994Z,10.50
2022-09-24T03:29:36.973Z,11.00
2022-09-24T03:30:36.979Z,10.00
2022-09-24T03:31:37.030Z,10.90
2022-09-24T03:32:36.933Z,11.30
2022-09-24T03:33:36.947Z,11.20
2022-09-24T03:34:36.912Z,10.60
2022-09-24T03:35:37.013Z,10.40
2022-09-24T03:36:36.910Z,10.70
2022-09-24T03:37:37.590Z,10.20
2022-09-24T03:38:36.870Z,9.70
2022-09-24T03:39:36.887Z,10.30
2022-09-24T03:40:36.951Z,10.10
2022-09-24T03:41:36.867Z,11.00
2022-09-24T03:42:36.811Z,10.30
2022-09-24T03:43:36.802Z,10.50
2022-09-24T03:44:36.804Z,10.00
2022-09-24T03:45:36.808Z,10.70
2022-09-24T03:46:36.808Z,10.20
2022-09-24T03:47:36.806Z,10.90
2022-09-24T03:48:36.758Z,10.50
2022-09-24T03:49:36.738Z,10.50
2022-09-24T03:50:36.759Z,10.60
2022-09-24T03:51:36.720Z,10.40
2022-09-24T03:52:36.706Z,10.00
2022-09-24T03:53:36.675Z,9.90
2022-09-24T03:54:36.669Z,10.60
2022-09-24T03:55:36.666Z,10.10
2022-09-24T03:56:36.656Z,10.70
2022-09-24T03:57:36.653Z,10.30
2022-09-24T03:58:36.774Z,10.40
2022-09-24T03:59:36.656Z,10.00
2022-09-24T04:00:40.937Z,9.90
2022-09-24T04:01:36.637Z,9.80
2022-09-24T04:02:36.847Z,10.50
2022-09-24T04:03:36.565Z,10.20
2022-09-24T04:04:36.546Z,10.60
2022-09-24T04:05:36.537Z,10.00
2022-09-24T04:06:36.515Z,10.50
2022-09-24T04:07:36.564Z,10.30
2022-09-24T04:08:36.532Z,10.40
2022-09-24T04:09:36.482Z,9.70
2022-09-24T04:10:36.482Z,9.10
2022-09-24T04:11:36.462Z,9.30
2022-09-24T04:12:37.528Z,9.80
2022-09-24T04:13:36.421Z,9.80
2022-09-24T04:14:36.423Z,10.30
2022-09-24T04:15:36.481Z,9.70
2022-09-24T04:16:36.469Z,9.30
2022-09-24T04:17:36.437Z,9.30
2022-09-24T04:18:39.218Z,9.50
2022-09-24T04:19:36.370Z,9.90
2022-09-24T04:20:36.327Z,9.60
2022-09-24T04:21:36.321Z,9.70
2022-09-24T04:22:36.319Z,9.30
2022-09-24T04:23:36.299Z,9.30
2022-09-24T04:24:36.308Z,9.70
2022-09-24T04:25:36.279Z,9.10
2022-09-24T04:26:36.248Z,9.00
2022-09-24T04:27:36.249Z,8.90
2022-09-24T04:28:36.217Z,9.50
2022-09-24T04:29:36.217Z,9.40
2022-09-24T04:30:36.199Z,8.80
2022-09-24T04:31:36.279Z,9.60
2022-09-24T04:32:36.175Z,9.50
2022-09-24T04:33:36.183Z,9.80
2022-09-24T04:34:36.157Z,10.90
2022-09-24T04:35:36.170Z,11.20
2022-09-24T04:36:36.142Z,10.70
2022-09-24T04:37:36.116Z,10.20
2022-09-24T04:38:36.095Z,10.50
2022-09-24T04:39:36.075Z,10.30
2022-09-24T04:40:36.135Z,10.00
2022-09-24T04:41:36.081Z,10.30
2022-09-24T04:42:36.098Z,10.90
2022-09-24T04:43:36.034Z,10.60
2022-09-24T04:44:36.036Z,10.30
2022-09-24T04:45:36.013Z,10.50
2022-09-24T04:46:36.024Z,10.10
2022-09-24T04:47:36.047Z,9.80
2022-09-24T04:48:36.008Z,9.40
2022-09-24T04:49:35.973Z,9.90
2022-09-24T04:50:35.962Z,9.20
2022-09-24T04:51:35.933Z,9.20
2022-09-24T04:52:35.928Z,9.50
2022-09-24T04:53:35.926Z,9.20
2022-09-24T04:54:35.943Z,9.50
2022-09-24T04:55:35.890Z,10.30
2022-09-24T04:56:35.900Z,9.90
2022-09-24T04:57:35.852Z,9.50
2022-09-24T04:58:35.923Z,9.50
2022-09-24T04:59:35.831Z,10.10
2022-09-24T05:00:35.872Z,9.80
2022-09-24T05:01:35.889Z,10.30
2022-09-24T05:02:35.932Z,10.20
2022-09-24T05:03:35.799Z,10.20
2022-09-24T05:04:35.770Z,9.50
2022-09-24T05:05:35.804Z,10.00
2022-09-24T05:06:35.762Z,10.30
2022-09-24T05:07:35.729Z,9.70
2022-09-24T05:08:35.724Z,10.50
2022-09-24T05:09:35.719Z,10.20
2022-09-24T05:10:35.729Z,10.90
2022-09-24T05:11:35.666Z,10.90
2022-09-24T05:12:35.757Z,10.20
2022-09-24T05:13:35.697Z,10.70
2022-09-24T05:14:35.646Z,10.30
2022-09-24T05:15:38.503Z,10.20
2022-09-24T05:16:36.705Z,10.20
2022-09-24T05:17:35.596Z,11.20
2022-09-24T05:18:35.685Z,10.30
2022-09-24T05:19:35.596Z,10.60
2022-09-24T05:20:35.659Z,10.60
2022-09-24T05:21:35.586Z,10.60
2022-09-24T05:22:35.565Z,10.70
2022-09-24T05:23:35.628Z,10.40
2022-09-24T05:24:35.508Z,11.50
2022-09-24T05:25:35.522Z,11.10
2022-09-24T05:26:35.504Z,9.80
2022-09-24T05:27:35.495Z,10.60
2022-09-24T05:28:35.454Z,10.40
2022-09-24T05:29:35.446Z,10.30
2022-09-24T05:30:35.459Z,10.70
2022-09-24T05:31:35.533Z,11.10
2022-09-24T05:32:35.407Z,11.00
2022-09-24T05:33:35.419Z,10.70
2022-09-24T05:34:35.397Z,10.30
2022-09-24T05:35:35.417Z,9.60
2022-09-24T05:36:35.359Z,10.50
2022-09-24T05:37:35.352Z,10.80
2022-09-24T05:38:35.323Z,10.60
2022-09-24T05:39:35.309Z,11.10
2022-09-24T05:40:35.394Z,10.90
2022-09-24T05:41:35.330Z,11.10
2022-09-24T05:42:35.280Z,12.00
2022-09-24T05:43:35.270Z,11.90
2022-09-24T05:44:35.249Z,11.10
2022-09-24T05:45:35.310Z,11.30
2022-09-24T05:46:35.298Z,11.30
2022-09-24T05:47:35.206Z,11.10
2022-09-24T05:48:35.220Z,11.30
2022-09-24T05:49:35.212Z,10.50
2022-09-24T05:50:35.367Z,11.20
2022-09-24T05:51:35.177Z,11.30
2022-09-24T05:52:35.157Z,11.40
2022-09-24T05:53:35.146Z,12.30
2022-09-24T05:54:35.139Z,11.20
2022-09-24T05:55:35.127Z,11.90
2022-09-24T05:56:35.103Z,11.00
2022-09-24T05:57:35.106Z,11.60
2022-09-24T05:58:35.111Z,11.20
2022-09-24T05:59:35.084Z,11.60
2022-09-24T06:00:35.073Z,11.90
2022-09-24T06:01:35.097Z,11.40
2022-09-24T06:02:35.073Z,10.80
2022-09-24T06:03:35.005Z,11.30
2022-09-24T06:04:34.993Z,11.70
2022-09-24T06:05:35.042Z,11.80
2022-09-24T06:06:34.984Z,12.00
2022-09-24T06:07:34.987Z,11.20
2022-09-24T06:08:34.962Z,11.20
2022-09-24T06:09:34.923Z,12.10
2022-09-24T06:10:34.911Z,11.70
2022-09-24T06:11:39.721Z,11.60
2022-09-24T06:12:35.938Z,11.70
2022-09-24T06:13:34.901Z,11.70
2022-09-24T06:14:34.871Z,11.30
2022-09-24T06:15:34.899Z,11.30
2022-09-24T06:16:34.957Z,11.30
2022-09-24T06:17:34.856Z,11.30
2022-09-24T06:18:34.839Z,11.70
2022-09-24T06:19:34.797Z,11.50
2022-09-24T06:20:34.796Z,12.10
2022-09-24T06:21:34.840Z,11.90
2022-09-24T06:22:34.779Z,11.30
2022-09-24T06:23:34.771Z,11.40
2022-09-24T06:24:34.751Z,11.80
2022-09-24T06:25:34.727Z,12.10
2022-09-24T06:26:34.726Z,12.10
2022-09-24T06:27:34.720Z,11.20
2022-09-24T06:28:34.708Z,11.70
2022-09-24T06:29:34.715Z,12.20
2022-09-24T06:30:34.689Z,11.40
2022-09-24T06:31:34.836Z,11.50
2022-09-24T06:32:34.655Z,11.10
2022-09-24T06:33:34.664Z,10.80
2022-09-24T06:34:34.623Z,10.80
2022-09-24T06:35:34.605Z,11.10
2022-09-24T06:36:34.636Z,10.80
2022-09-24T06:37:34.569Z,11.60
2022-09-24T06:38:34.587Z,11.00
2022-09-24T06:39:34.546Z,10.60
2022-09-24T06:40:37.325Z,10.90
2022-09-24T06:41:34.559Z,11.30
2022-09-24T06:42:34.504Z,10.80
2022-09-24T06:43:34.578Z,11.40
2022-09-24T06:44:34.523Z,10.70
2022-09-24T06:45:34.472Z,11.30
2022-09-24T06:46:35.560Z,11.10
2022-09-24T06:47:34.441Z,11.60
2022-09-24T06:48:34.441Z,11.30
2022-09-24T06:49:34.527Z,11.70
2022-09-24T06:50:34.448Z,11.30
2022-09-24T06:51:34.516Z,11.50
2022-09-24T06:52:34.392Z,11.70
2022-09-24T06:53:34.382Z,12.00
2022-09-24T06:54:34.378Z,11.10
2022-09-24T06:55:34.374Z,11.70
2022-09-24T06:56:34.339Z,11.60
2022-09-24T06:57:34.309Z,10.90
2022-09-24T06:58:34.347Z,11.70
2022-09-24T06:59:34.293Z,12.30
2022-09-24T07:00:34.404Z,11.40
2022-09-24T07:01:34.437Z,11.90
2022-09-24T07:02:34.341Z,11.90
2022-09-24T07:03:34.263Z,11.70
2022-09-24T07:04:34.257Z,12.80
2022-09-24T07:05:37.182Z,12.80
2022-09-24T07:06:35.277Z,12.90
2022-09-24T07:07:34.194Z,12.20
2022-09-24T07:08:34.242Z,12.60
2022-09-24T07:09:34.155Z,12.30
2022-09-24T07:10:34.155Z,12.60
2022-09-24T07:11:34.136Z,12.20
2022-09-24T07:12:34.155Z,11.80
2022-09-24T07:13:34.114Z,12.20
2022-09-24T07:14:34.147Z,12.00
2022-09-24T07:15:34.086Z,11.70
2022-09-24T07:16:34.139Z,12.40
2022-09-24T07:17:34.190Z,11.90
2022-09-24T07:18:34.065Z,11.70
2022-09-24T07:19:34.048Z,12.60
2022-09-24T07:20:34.024Z,11.90
2022-09-24T07:21:34.077Z,11.70
2022-09-24T07:22:34.016Z,11.60
2022-09-24T07:23:34.004Z,10.90
2022-09-24T07:24:33.998Z,12.00
2022-09-24T07:25:33.952Z,11.70
2022-09-24T07:26:33.942Z,12.00
2022-09-24T07:27:33.943Z,12.60
2022-09-24T07:28:33.991Z,12.20
2022-09-24T07:29:33.903Z,12.50
2022-09-24T07:30:33.930Z,12.40
2022-09-24T07:31:33.967Z,12.10
2022-09-24T07:32:33.860Z,12.10
2022-09-24T07:33:33.861Z,12.10
2022-09-24T07:34:33.839Z,11.80
2022-09-24T07:35:33.838Z,11.70
2022-09-24T07:36:33.817Z,11.30
2022-09-24T07:37:33.808Z,11.00
2022-09-24T07:38:33.829Z,11.70
2022-09-24T07:39:33.777Z,10.90
2022-09-24T07:40:33.855Z,11.40
2022-09-24T07:41:37.395Z,11.30
2022-09-24T07:42:34.736Z,10.90
2022-09-24T07:43:33.738Z,11.40
2022-09-24T07:44:33.703Z,11.50
2022-09-24T07:45:33.716Z,11.50
2022-09-24T07:46:33.742Z,11.30
2022-09-24T07:47:33.676Z,11.60
2022-09-24T07:48:33.695Z,12.30
2022-09-24T07:49:33.635Z,11.20
2022-09-24T07:50:33.635Z,11.70
2022-09-24T07:51:33.626Z,11.80
2022-09-24T07:52:33.604Z,10.80
2022-09-24T07:53:33.584Z,10.80
2022-09-24T07:54:33.570Z,11.20
2022-09-24T07:55:33.564Z,10.70
2022-09-24T07:56:33.560Z,11.80
2022-09-24T07:57:33.575Z,11.20
2022-09-24T07:58:33.512Z,11.40
2022-09-24T07:59:33.522Z,11.30
2022-09-24T08:00:33.492Z,11.00
2022-09-24T08:01:33.515Z,11.40
2022-09-24T08:02:33.469Z,11.70
2022-09-24T08:03:33.527Z,11.40
2022-09-24T08:04:33.461Z,11.40
2022-09-24T08:05:33.445Z,11.10
2022-09-24T08:06:37.403Z,11.20
2022-09-24T08:07:34.479Z,11.90
2022-09-24T08:08:33.411Z,11.70
2022-09-24T08:09:33.461Z,11.70
2022-09-24T08:10:33.389Z,11.50
2022-09-24T08:11:33.379Z,11.20
2022-09-24T08:12:33.359Z,10.80
2022-09-24T08:13:33.336Z,11.40
2022-09-24T08:14:33.309Z,11.00
2022-09-24T08:15:33.315Z,11.00
2022-09-24T08:16:33.308Z,11.50
2022-09-24T08:17:33.274Z,11.30
2022-09-24T08:18:33.277Z,11.80
2022-09-24T08:19:33.277Z,12.50
2022-09-24T08:20:33.330Z,13.30
2022-09-24T08:21:33.226Z,12.50
2022-09-24T08:22:33.216Z,12.30
2022-09-24T08:23:33.194Z,11.90
2022-09-24T08:24:33.213Z,10.90
2022-09-24T08:25:33.384Z,10.60
2022-09-24T08:26:33.181Z,10.00
2022-09-24T08:27:33.160Z,10.40
2022-09-24T08:28:33.148Z,10.20
2022-09-24T08:29:33.125Z,10.60
2022-09-24T08:30:33.145Z,9.60
2022-09-24T08:31:33.148Z,10.60
2022-09-24T08:32:33.109Z,10.70
2022-09-24T08:33:33.072Z,10.80
2022-09-24T08:34:33.110Z,10.20
2022-09-24T08:35:33.082Z,10.60
2022-09-24T08:36:33.041Z,10.90
2022-09-24T08:37:33.073Z,11.00
2022-09-24T08:38:33.045Z,10.30
2022-09-24T08:39:33.015Z,10.10
2022-09-24T08:40:33.062Z,9.60
2022-09-24T08:41:33.013Z,9.40
2022-09-24T08:42:32.970Z,9.80
2022-09-24T08:43:32.969Z,9.50
2022-09-24T08:44:32.929Z,10.10
2022-09-24T08:45:32.952Z,10.40
2022-09-24T08:46:32.985Z,9.90
2022-09-24T08:47:32.908Z,10.60
2022-09-24T08:48:32.888Z,10.30
2022-09-24T08:49:32.867Z,9.90
2022-09-24T08:50:32.847Z,9.00
2022-09-24T08:51:33.575Z,9.30
2022-09-24T08:52:32.828Z,9.50
2022-09-24T08:53:32.857Z,8.90
2022-09-24T08:54:32.827Z,9.00
2022-09-24T08:55:32.797Z,9.10
2022-09-24T08:56:32.807Z,9.40
2022-09-24T08:57:32.758Z,9.80
2022-09-24T08:58:32.748Z,9.00
2022-09-24T08:59:32.771Z,9.10
2022-09-24T09:00:32.725Z,9.20
2022-09-24T09:01:32.783Z,9.50
2022-09-24T09:02:32.830Z,11.00
2022-09-24T09:03:32.701Z,9.90
2022-09-24T09:04:32.675Z,10.00
2022-09-24T09:05:32.684Z,9.10
2022-09-24T09:06:32.646Z,8.90
2022-09-24T09:07:32.649Z,8.90
2022-09-24T09:08:54.878Z,8.80
2022-09-24T09:09:33.668Z,8.50
2022-09-24T09:10:32.604Z,8.50
2022-09-24T09:11:32.618Z,9.30
2022-09-24T09:12:32.605Z,9.10
2022-09-24T09:13:32.557Z,8.90
2022-09-24T09:14:32.532Z,9.40
2022-09-24T09:15:32.563Z,10.10
2022-09-24T09:16:32.603Z,9.50
2022-09-24T09:17:32.533Z,9.00
2022-09-24T09:18:32.506Z,9.60
2022-09-24T09:19:32.473Z,9.20
2022-09-24T09:20:32.461Z,9.20
2022-09-24T09:21:32.445Z,9.70
2022-09-24T09:22:32.511Z,9.10
2022-09-24T09:23:32.456Z,10.20
2022-09-24T09:24:32.434Z,9.40
2022-09-24T09:25:32.402Z,9.80
2022-09-24T09:26:32.421Z,9.70
2022-09-24T09:27:32.423Z,10.00
2022-09-24T09:28:32.403Z,9.80
2022-09-24T09:29:32.359Z,9.20
2022-09-24T09:30:32.399Z,9.50
2022-09-24T09:31:32.392Z,9.30
2022-09-24T09:32:32.297Z,9.40
2022-09-24T09:33:32.307Z,9.80
2022-09-24T09:34:32.289Z,9.30
2022-09-24T09:35:32.348Z,9.60
2022-09-24T09:36:32.265Z,9.60
2022-09-24T09:37:32.292Z,9.70
2022-09-24T09:38:32.257Z,9.30
2022-09-24T09:39:32.217Z,9.70
2022-09-24T09:40:32.611Z,9.90
2022-09-24T09:41:32.203Z,9.20
2022-09-24T09:42:32.260Z,9.10
2022-09-24T09:43:32.205Z,9.30
2022-09-24T09:44:32.166Z,9.80
2022-09-24T09:45:32.186Z,9.40
2022-09-24T09:46:32.204Z,9.40
2022-09-24T09:47:32.135Z,10.10
2022-09-24T09:48:32.133Z,9.60
2022-09-24T09:49:32.097Z,9.50
2022-09-24T09:50:32.087Z,10.00
2022-09-24T09:51:32.054Z,9.90
2022-09-24T09:52:32.054Z,9.60
2022-09-24T09:53:32.031Z,9.00
2022-09-24T09:54:32.012Z,9.90
2022-09-24T09:55:32.036Z,9.20
2022-09-24T09:56:31.994Z,9.00
2022-09-24T09:57:31.984Z,8.70
2022-09-24T09:58:31.986Z,9.40
2022-09-24T09:59:31.954Z,9.30
2022-09-24T10:00:31.944Z,9.40
2022-09-24T10:01:31.945Z,10.00
2022-09-24T10:02:32.046Z,9.20
2022-09-24T10:03:31.972Z,9.70
2022-09-24T10:04:31.879Z,9.50
2022-09-24T10:05:31.903Z,9.50
2022-09-24T10:06:31.855Z,9.50
2022-09-24T10:07:31.891Z,9.50
2022-09-24T10:08:31.820Z,9.40
2022-09-24T10:09:31.828Z,9.00
2022-09-24T10:10:31.851Z,9.40
2022-09-24T10:11:31.811Z,9.40
2022-09-24T10:12:31.810Z,9.40
2022-09-24T10:13:31.791Z,9.50
2022-09-24T10:14:31.747Z,9.10
2022-09-24T10:15:31.855Z,8.00
2022-09-24T10:16:31.809Z,7.40
2022-09-24T10:17:31.724Z,8.50
2022-09-24T10:18:31.695Z,8.00
2022-09-24T10:19:31.755Z,8.30
2022-09-24T10:20:31.692Z,8.00
2022-09-24T10:21:31.708Z,7.80
2022-09-24T10:22:31.657Z,8.30
2022-09-24T10:23:31.655Z,8.30
2022-09-24T10:24:31.631Z,7.50
2022-09-24T10:25:31.630Z,7.40
2022-09-24T10:26:31.616Z,7.70
2022-09-24T10:27:31.787Z,8.20
2022-09-24T10:28:31.615Z,7.30
2022-09-24T10:29:31.602Z,7.50
2022-09-24T10:30:31.572Z,7.30
2022-09-24T10:31:31.626Z,7.90
2022-09-24T10:32:31.563Z,8.10
2022-09-24T10:33:31.514Z,7.50
2022-09-24T10:34:31.539Z,7.20
2022-09-24T10:35:31.563Z,7.30
2022-09-24T10:36:31.474Z,7.90
2022-09-24T10:37:31.515Z,7.90
2022-09-24T10:38:31.443Z,8.00
2022-09-24T10:39:31.434Z,8.20
2022-09-24T10:40:31.664Z,8.00
2022-09-24T10:41:31.444Z,8.00
2022-09-24T10:42:31.395Z,7.50
2022-09-24T10:43:31.382Z,7.40
2022-09-24T10:44:31.372Z,7.50
2022-09-24T10:45:31.396Z,7.20
2022-09-24T10:46:31.441Z,7.70
2022-09-24T10:47:31.371Z,7.20
2022-09-24T10:48:31.311Z,7.60
2022-09-24T10:49:31.310Z,7.50
2022-09-24T10:50:31.330Z,7.60
2022-09-24T10:51:31.310Z,7.20
2022-09-24T10:52:31.277Z,6.70
2022-09-24T10:53:31.293Z,7.00
2022-09-24T10:54:31.241Z,6.80
2022-09-24T10:55:31.252Z,7.30
2022-09-24T10:56:31.228Z,6.80
2022-09-24T10:57:31.208Z,7.00
2022-09-24T10:58:31.231Z,6.60
2022-09-24T10:59:31.208Z,6.90
2022-09-24T11:00:31.178Z,6.70
2022-09-24T11:01:31.211Z,6.80
2022-09-24T11:02:31.198Z,6.60
2022-09-24T11:03:31.178Z,6.60
2022-09-24T11:04:36.452Z,6.30
2022-09-24T11:05:32.138Z,6.60
2022-09-24T11:06:31.086Z,5.50
2022-09-24T11:07:31.126Z,6.40
2022-09-24T11:08:31.095Z,6.50
2022-09-24T11:09:31.079Z,6.30
2022-09-24T11:10:31.057Z,7.00
2022-09-24T11:11:31.025Z,7.20
2022-09-24T11:12:31.004Z,6.50
2022-09-24T11:13:31.995Z,6.40
2022-09-24T11:14:30.984Z,6.70
2022-09-24T11:15:31.052Z,6.20
2022-09-24T11:16:31.037Z,7.10
2022-09-24T11:17:31.012Z,7.10
2022-09-24T11:18:30.961Z,7.20
2022-09-24T11:19:30.982Z,6.60
2022-09-24T11:20:30.913Z,7.10
2022-09-24T11:21:30.902Z,7.10
2022-09-24T11:22:30.883Z,7.40
2022-09-24T11:23:30.901Z,7.20
2022-09-24T11:24:30.872Z,7.40
2022-09-24T11:25:30.942Z,7.10
2022-09-24T11:26:30.873Z,7.00
2022-09-24T11:27:30.828Z,7.40
2022-09-24T11:28:30.801Z,7.50
2022-09-24T11:29:36.228Z,6.70
2022-09-24T11:30:31.801Z,6.50
2022-09-24T11:31:30.797Z,6.70
2022-09-24T11:32:30.759Z,6.80
2022-09-24T11:33:30.751Z,6.60
2022-09-24T11:34:30.760Z,6.80
2022-09-24T11:35:30.779Z,6.50
2022-09-24T11:36:30.720Z,6.50
2022-09-24T11:37:30.721Z,6.30
2022-09-24T11:38:30.672Z,6.50
2022-09-24T11:39:30.681Z,6.50
2022-09-24T11:40:30.724Z,6.60
2022-09-24T11:41:30.699Z,6.10
2022-09-24T11:42:30.645Z,6.10
2022-09-24T11:43:30.624Z,6.60
2022-09-24T11:44:30.622Z,6.10
2022-09-24T11:45:30.606Z,6.60
2022-09-24T11:46:30.655Z,6.50
2022-09-24T11:47:30.584Z,6.40
2022-09-24T11:48:30.555Z,6.30
2022-09-24T11:49:30.551Z,6.40
2022-09-24T11:50:30.754Z,6.40
2022-09-24T11:51:30.562Z,6.00
2022-09-24T11:52:30.525Z,6.20
2022-09-24T11:53:30.493Z,6.40
2022-09-24T11:54:30.504Z,6.70
2022-09-24T11:55:30.492Z,6.80
2022-09-24T11:56:30.450Z,7.00
2022-09-24T11:57:30.424Z,6.90
2022-09-24T11:58:30.450Z,6.50
2022-09-24T11:59:30.395Z,6.70
2022-09-24T12:00:30.443Z,6.70
2022-09-24T12:01:30.439Z,6.40
2022-09-24T12:02:30.452Z,6.70
2022-09-24T12:03:30.447Z,7.20
2022-09-24T12:04:30.323Z,7.20
2022-09-24T12:05:30.342Z,7.00
2022-09-24T12:06:30.345Z,6.80
2022-09-24T12:07:30.331Z,7.10
2022-09-24T12:08:30.303Z,7.00
2022-09-24T12:09:30.274Z,6.90
2022-09-24T12:10:30.496Z,7.00
2022-09-24T12:11:31.053Z,7.30
2022-09-24T12:12:30.241Z,7.80
2022-09-24T12:13:30.228Z,8.10
2022-09-24T12:14:30.228Z,7.70
2022-09-24T12:15:30.275Z,7.90
2022-09-24T12:16:30.235Z,7.90
2022-09-24T12:17:30.210Z,7.20
2022-09-24T12:18:30.149Z,7.50
2022-09-24T12:19:30.170Z,6.40
2022-09-24T12:20:30.136Z,6.30
2022-09-24T12:21:30.132Z,6.10
2022-09-24T12:22:30.128Z,6.20
2022-09-24T12:23:30.097Z,6.60
2022-09-24T12:24:30.096Z,6.00
2022-09-24T12:25:30.057Z,7.20
2022-09-24T12:26:30.095Z,6.60
2022-09-24T12:27:30.027Z,6.00
2022-09-24T12:28:30.018Z,5.80
2022-09-24T12:29:30.014Z,5.90
2022-09-24T12:30:29.999Z,6.70
2022-09-24T12:31:30.136Z,6.50
2022-09-24T12:32:30.046Z,6.20
2022-09-24T12:33:29.957Z,6.20
2022-09-24T12:34:29.977Z,6.50
2022-09-24T12:35:29.925Z,6.40
2022-09-24T12:36:29.947Z,6.50
2022-09-24T12:37:29.904Z,6.60
2022-09-24T12:38:29.898Z,6.40
2022-09-24T12:39:29.904Z,6.30
2022-09-24T12:40:29.893Z,6.70
2022-09-24T12:41:29.873Z,6.70
2022-09-24T12:42:29.831Z,7.10
2022-09-24T12:43:29.834Z,7.00
2022-09-24T12:44:29.806Z,6.80
2022-09-24T12:45:29.818Z,6.70
2022-09-24T12:46:29.844Z,7.10
2022-09-24T12:47:29.802Z,6.70
2022-09-24T12:48:29.775Z,7.20
2022-09-24T12:49:29.764Z,7.20
2022-09-24T12:50:29.730Z,6.30
2022-09-24T12:51:29.781Z,6.80
2022-09-24T12:52:29.751Z,6.30
2022-09-24T12:53:29.711Z,6.00
2022-09-24T12:54:29.754Z,6.20
2022-09-24T12:55:29.687Z,7.10
2022-09-24T12:56:29.716Z,9.40
2022-09-24T12:57:29.639Z,6.10
2022-09-24T12:58:29.678Z,5.80
2022-09-24T12:59:29.655Z,6.50
2022-09-24T13:00:29.599Z,6.50
2022-09-24T13:01:29.722Z,6.00
2022-09-24T13:02:29.812Z,6.00
2022-09-24T13:03:29.570Z,6.50
2022-09-24T13:04:29.569Z,5.90
2022-09-24T13:05:29.579Z,5.60